sensor_id;sensor_type;location;lat;lon;timestamp;P1;durP1;ratioP1;P2;durP2;ratioP2
9938;SDS011;5008;50.656;7.188;2024-01-15T05:01:37;9.87;;;5.53;;
9938;SDS011;5008;50.656;7.188;2024-01-15T05:04:04;7.30;;;5.13;;
9938;SDS011;5008;50.656;7.188;2024-01-15T05:06:31;6.53;;;4.90;;
9938;SDS011;5008;50.656;7.188;2024-01-15T05:08:58;6.47;;;4.70;;
9938;SDS011;5008;50.656;7.188;2024-01-15T05:11:25;7.07;;;4.80;;
9938;SDS011;5008;50.656;7.188;2024-01-15T05:13:52;6.87;;;5.10;;
9938;SDS011;5008;50.656;7.188;2024-01-15T05:16:18;7.70;;;4.57;;
9938;SDS011;5008;50.656;7.188;2024-01-15T05:18:52;6.80;;;5.10;;
9938;SDS011;5008;50.656;7.188;2024-01-15T05:21:20;6.47;;;5.30;;
9938;SDS011;5008;50.656;7.188;2024-01-15T05:23:47;5.73;;;5.13;;
9938;SDS011;5008;50.656;7.188;2024-01-15T05:26:14;5.23;;;4.73;;
9938;SDS011;5008;50.656;7.188;2024-01-15T05:28:40;7.90;;;5.13;;
9938;SDS011;5008;50.656;7.188;2024-01-15T05:31:07;5.50;;;4.63;;
9938;SDS011;5008;50.656;7.188;2024-01-15T05:33:35;8.80;;;5.10;;
9938;SDS011;5008;50.656;7.188;2024-01-15T05:36:05;7.67;;;5.23;;
9938;SDS011;5008;50.656;7.188;2024-01-15T05:38:32;7.60;;;5.00;;
9938;SDS011;5008;50.656;7.188;2024-01-15T05:40:59;7.40;;;4.90;;
9938;SDS011;5008;50.656;7.188;2024-01-15T05:43:25;7.80;;;5.17;;
9938;SDS011;5008;50.656;7.188;2024-01-15T05:45:52;8.80;;;5.27;;
9938;SDS011;5008;50.656;7.188;2024-01-15T05:48:19;6.57;;;4.70;;
9938;SDS011;5008;50.656;7.188;2024-01-15T05:50:46;6.80;;;4.97;;
9938;SDS011;5008;50.656;7.188;2024-01-15T05:53:14;9.43;;;5.87;;
9938;SDS011;5008;50.656;7.188;2024-01-15T05:55:41;8.07;;;5.03;;
9938;SDS011;5008;50.656;7.188;2024-01-15T05:58:07;8.27;;;5.07;;
9938;SDS011;5008;50.656;7.188;2024-01-15T06:00:34;6.33;;;4.87;;
9938;SDS011;5008;50.656;7.188;2024-01-15T06:03:03;7.47;;;5.10;;
9938;SDS011;5008;50.656;7.188;2024-01-15T06:05:30;6.47;;;4.67;;
9938;SDS011;5008;50.656;7.188;2024-01-15T06:07:57;5.70;;;4.70;;
9938;SDS011;5008;50.656;7.188;2024-01-15T06:10:25;7.03;;;4.90;;
9938;SDS011;5008;50.656;7.188;2024-01-15T06:12:52;7.27;;;5.40;;
9938;SDS011;5008;50.656;7.188;2024-01-15T06:15:18;7.97;;;4.77;;
9938;SDS011;5008;50.656;7.188;2024-01-15T06:17:45;8.20;;;5.67;;
9938;SDS011;5008;50.656;7.188;2024-01-15T06:20:12;6.33;;;5.00;;
9938;SDS011;5008;50.656;7.188;2024-01-15T06:22:39;5.70;;;5.10;;
9938;SDS011;5008;50.656;7.188;2024-01-15T06:25:08;8.87;;;4.83;;
9938;SDS011;5008;50.656;7.188;2024-01-15T06:27:36;6.83;;;5.13;;
9938;SDS011;5008;50.656;7.188;2024-01-15T06:30:04;7.63;;;4.90;;
9938;SDS011;5008;50.656;7.188;2024-01-15T06:32:31;7.77;;;4.90;;
9938;SDS011;5008;50.656;7.188;2024-01-15T06:37:36;6.17;;;4.73;;
9938;SDS011;5008;50.656;7.188;2024-01-15T06:40:03;6.00;;;5.03;;
9938;SDS011;5008;50.656;7.188;2024-01-15T06:42:31;7.00;;;5.23;;
9938;SDS011;5008;50.656;7.188;2024-01-15T06:44:59;6.77;;;5.10;;
9938;SDS011;5008;50.656;7.188;2024-01-15T06:47:26;7.87;;;5.23;;
9938;SDS011;5008;50.656;7.188;2024-01-15T06:49:53;7.27;;;5.77;;
9938;SDS011;5008;50.656;7.188;2024-01-15T06:52:20;7.50;;;5.60;;
9938;SDS011;5008;50.656;7.188;2024-01-15T06:54:46;8.07;;;5.23;;
9938;SDS011;5008;50.656;7.188;2024-01-15T06:57:13;6.97;;;5.37;;
9938;SDS011;5008;50.656;7.188;2024-01-15T06:59:40;8.27;;;5.70;;
9938;SDS011;5008;50.656;7.188;2024-01-15T07:02:08;7.50;;;6.07;;
9938;SDS011;5008;50.656;7.188;2024-01-15T07:04:35;9.53;;;5.80;;
9938;SDS011;5008;50.656;7.188;2024-01-15T07:07:02;12.03;;;6.57;;
9938;SDS011;5008;50.656;7.188;2024-01-15T07:09:29;9.53;;;6.33;;
9938;SDS011;5008;50.656;7.188;2024-01-15T07:11:56;9.13;;;6.47;;
9938;SDS011;5008;50.656;7.188;2024-01-15T07:14:23;12.47;;;6.60;;
9938;SDS011;5008;50.656;7.188;2024-01-15T07:16:50;9.00;;;6.30;;
9938;SDS011;5008;50.656;7.188;2024-01-15T07:19:18;8.23;;;6.17;;
9938;SDS011;5008;50.656;7.188;2024-01-15T07:21:44;11.57;;;6.47;;
9938;SDS011;5008;50.656;7.188;2024-01-15T07:24:11;10.77;;;6.97;;
9938;SDS011;5008;50.656;7.188;2024-01-15T07:26:38;12.03;;;6.53;;
9938;SDS011;5008;50.656;7.188;2024-01-15T07:29:05;13.33;;;6.83;;
9938;SDS011;5008;50.656;7.188;2024-01-15T07:31:32;10.03;;;6.70;;
9938;SDS011;5008;50.656;7.188;2024-01-15T07:33:58;11.00;;;6.37;;
9938;SDS011;5008;50.656;7.188;2024-01-15T07:36:26;10.57;;;6.77;;
9938;SDS011;5008;50.656;7.188;2024-01-15T07:38:53;11.97;;;7.10;;
9938;SDS011;5008;50.656;7.188;2024-01-15T07:41:20;10.73;;;6.87;;
9938;SDS011;5008;50.656;7.188;2024-01-15T07:43:47;11.57;;;6.67;;
9938;SDS011;5008;50.656;7.188;2024-01-15T07:46:14;12.87;;;8.03;;
9938;SDS011;5008;50.656;7.188;2024-01-15T07:48:40;11.57;;;6.93;;
9938;SDS011;5008;50.656;7.188;2024-01-15T07:51:08;11.20;;;7.57;;
9938;SDS011;5008;50.656;7.188;2024-01-15T07:53:36;11.43;;;7.73;;
9938;SDS011;5008;50.656;7.188;2024-01-15T07:56:03;12.97;;;7.93;;
9938;SDS011;5008;50.656;7.188;2024-01-15T07:58:30;11.87;;;7.17;;
9938;SDS011;5008;50.656;7.188;2024-01-15T08:00:57;13.50;;;7.63;;
9938;SDS011;5008;50.656;7.188;2024-01-15T08:03:23;11.60;;;7.60;;
9938;SDS011;5008;50.656;7.188;2024-01-15T08:05:50;11.60;;;7.33;;
9938;SDS011;5008;50.656;7.188;2024-01-15T08:08:19;9.50;;;6.87;;
9938;SDS011;5008;50.656;7.188;2024-01-15T08:10:49;12.73;;;7.07;;
9938;SDS011;5008;50.656;7.188;2024-01-15T08:13:16;12.30;;;7.80;;
9938;SDS011;5008;50.656;7.188;2024-01-15T08:15:43;10.60;;;6.70;;
9938;SDS011;5008;50.656;7.188;2024-01-15T08:18:10;12.60;;;7.40;;
9938;SDS011;5008;50.656;7.188;2024-01-15T08:20:36;8.23;;;6.60;;
9938;SDS011;5008;50.656;7.188;2024-01-15T08:23:03;11.87;;;6.97;;
9938;SDS011;5008;50.656;7.188;2024-01-15T08:25:30;10.37;;;6.60;;
9938;SDS011;5008;50.656;7.188;2024-01-15T08:27:58;8.33;;;6.57;;
9938;SDS011;5008;50.656;7.188;2024-01-15T08:30:25;11.13;;;6.57;;
9938;SDS011;5008;50.656;7.188;2024-01-15T08:32:52;8.20;;;5.67;;
9938;SDS011;5008;50.656;7.188;2024-01-15T08:35:19;10.40;;;6.70;;
9938;SDS011;5008;50.656;7.188;2024-01-15T08:37:47;9.00;;;6.97;;
9938;SDS011;5008;50.656;7.188;2024-01-15T08:40:14;7.97;;;5.93;;
9938;SDS011;5008;50.656;7.188;2024-01-15T08:42:41;9.17;;;5.77;;
9938;SDS011;5008;50.656;7.188;2024-01-15T08:45:10;8.83;;;5.90;;
9938;SDS011;5008;50.656;7.188;2024-01-15T08:47:36;9.33;;;5.63;;
9938;SDS011;5008;50.656;7.188;2024-01-15T08:50:04;8.13;;;5.57;;
9938;SDS011;5008;50.656;7.188;2024-01-15T08:52:31;7.27;;;5.70;;
9938;SDS011;5008;50.656;7.188;2024-01-15T08:54:58;7.73;;;5.10;;
9938;SDS011;5008;50.656;7.188;2024-01-15T08:57:26;9.47;;;6.13;;
9938;SDS011;5008;50.656;7.188;2024-01-15T08:59:58;8.43;;;6.47;;
9938;SDS011;5008;50.656;7.188;2024-01-15T09:02:29;10.90;;;6.37;;
9938;SDS011;5008;50.656;7.188;2024-01-15T09:04:55;9.20;;;5.30;;
9938;SDS011;5008;50.656;7.188;2024-01-15T09:07:24;8.03;;;5.60;;
9938;SDS011;5008;50.656;7.188;2024-01-15T09:09:52;9.47;;;6.37;;
9938;SDS011;5008;50.656;7.188;2024-01-15T09:12:27;9.17;;;6.10;;
9938;SDS011;5008;50.656;7.188;2024-01-15T09:14:58;9.10;;;6.30;;
9938;SDS011;5008;50.656;7.188;2024-01-15T09:17:25;7.57;;;5.53;;
9938;SDS011;5008;50.656;7.188;2024-01-15T09:19:54;9.33;;;5.53;;
9938;SDS011;5008;50.656;7.188;2024-01-15T09:22:22;10.23;;;6.43;;
9938;SDS011;5008;50.656;7.188;2024-01-15T09:24:49;7.47;;;5.00;;
9938;SDS011;5008;50.656;7.188;2024-01-15T09:27:22;7.20;;;5.40;;
9938;SDS011;5008;50.656;7.188;2024-01-15T09:30:22;8.30;;;6.00;;
9938;SDS011;5008;50.656;7.188;2024-01-15T09:32:49;7.97;;;5.17;;
9938;SDS011;5008;50.656;7.188;2024-01-15T09:35:17;7.77;;;5.83;;
9938;SDS011;5008;50.656;7.188;2024-01-15T09:37:43;7.23;;;5.00;;
9938;SDS011;5008;50.656;7.188;2024-01-15T09:40:12;6.10;;;4.60;;
9938;SDS011;5008;50.656;7.188;2024-01-15T09:42:40;6.93;;;4.50;;
9938;SDS011;5008;50.656;7.188;2024-01-15T09:45:07;7.17;;;4.70;;
9938;SDS011;5008;50.656;7.188;2024-01-15T09:47:35;7.77;;;4.70;;
9938;SDS011;5008;50.656;7.188;2024-01-15T09:50:02;5.30;;;3.93;;
9938;SDS011;5008;50.656;7.188;2024-01-15T09:52:31;5.87;;;4.10;;
9938;SDS011;5008;50.656;7.188;2024-01-15T09:54:59;6.93;;;4.27;;
9938;SDS011;5008;50.656;7.188;2024-01-15T09:57:30;5.57;;;4.10;;
9938;SDS011;5008;50.656;7.188;2024-01-15T09:59:57;5.73;;;3.80;;
9938;SDS011;5008;50.656;7.188;2024-01-15T10:02:29;7.40;;;4.10;;
9938;SDS011;5008;50.656;7.188;2024-01-15T10:04:56;5.47;;;3.83;;
9938;SDS011;5008;50.656;7.188;2024-01-15T10:07:22;4.20;;;3.50;;
9938;SDS011;5008;50.656;7.188;2024-01-15T10:09:52;6.00;;;3.90;;
9938;SDS011;5008;50.656;7.188;2024-01-15T10:12:19;4.67;;;3.67;;
9938;SDS011;5008;50.656;7.188;2024-01-15T10:14:47;4.63;;;3.50;;
9938;SDS011;5008;50.656;7.188;2024-01-15T10:17:15;5.53;;;3.63;;
9938;SDS011;5008;50.656;7.188;2024-01-15T10:19:42;4.33;;;3.30;;
9938;SDS011;5008;50.656;7.188;2024-01-15T10:22:09;7.30;;;3.50;;
9938;SDS011;5008;50.656;7.188;2024-01-15T10:24:36;6.13;;;3.70;;
9938;SDS011;5008;50.656;7.188;2024-01-15T10:27:07;5.07;;;3.23;;
9938;SDS011;5008;50.656;7.188;2024-01-15T10:29:36;4.03;;;3.30;;
9938;SDS011;5008;50.656;7.188;2024-01-15T10:32:05;3.80;;;2.77;;
9938;SDS011;5008;50.656;7.188;2024-01-15T10:34:33;5.87;;;3.47;;
9938;SDS011;5008;50.656;7.188;2024-01-15T10:37:03;4.57;;;3.47;;
9938;SDS011;5008;50.656;7.188;2024-01-15T10:39:30;4.93;;;3.40;;
9938;SDS011;5008;50.656;7.188;2024-01-15T10:41:57;4.03;;;3.57;;
9938;SDS011;5008;50.656;7.188;2024-01-15T10:44:25;4.63;;;3.83;;
9938;SDS011;5008;50.656;7.188;2024-01-15T10:46:52;6.47;;;3.90;;
9938;SDS011;5008;50.656;7.188;2024-01-15T10:49:20;5.47;;;3.47;;
9938;SDS011;5008;50.656;7.188;2024-01-15T10:51:49;4.60;;;4.03;;
9938;SDS011;5008;50.656;7.188;2024-01-15T10:54:18;5.03;;;3.93;;
9938;SDS011;5008;50.656;7.188;2024-01-15T10:56:46;6.80;;;3.80;;
9938;SDS011;5008;50.656;7.188;2024-01-15T10:59:15;4.80;;;3.87;;
9938;SDS011;5008;50.656;7.188;2024-01-15T11:01:44;4.13;;;3.63;;
9938;SDS011;5008;50.656;7.188;2024-01-15T11:04:11;4.68;;;4.22;;
9938;SDS011;5008;50.656;7.188;2024-01-15T11:06:42;3.83;;;3.30;;
9938;SDS011;5008;50.656;7.188;2024-01-15T11:09:10;5.77;;;3.43;;
9938;SDS011;5008;50.656;7.188;2024-01-15T11:11:40;4.53;;;3.43;;
9938;SDS011;5008;50.656;7.188;2024-01-15T11:14:08;4.23;;;3.53;;
9938;SDS011;5008;50.656;7.188;2024-01-15T11:16:55;4.40;;;3.53;;
9938;SDS011;5008;50.656;7.188;2024-01-15T11:19:24;4.17;;;3.43;;
9938;SDS011;5008;50.656;7.188;2024-01-15T11:21:51;3.90;;;3.50;;
9938;SDS011;5008;50.656;7.188;2024-01-15T11:24:33;5.07;;;3.43;;
9938;SDS011;5008;50.656;7.188;2024-01-15T11:27:04;3.80;;;3.43;;
9938;SDS011;5008;50.656;7.188;2024-01-15T11:29:33;5.63;;;3.50;;
9938;SDS011;5008;50.656;7.188;2024-01-15T11:32:02;5.47;;;3.70;;
9938;SDS011;5008;50.656;7.188;2024-01-15T11:37:28;4.37;;;3.40;;
9938;SDS011;5008;50.656;7.188;2024-01-15T11:40:15;4.40;;;4.00;;
9938;SDS011;5008;50.656;7.188;2024-01-15T11:42:44;5.03;;;4.07;;
9938;SDS011;5008;50.656;7.188;2024-01-15T11:45:12;4.07;;;3.67;;
9938;SDS011;5008;50.656;7.188;2024-01-15T11:50:37;4.13;;;3.50;;
9938;SDS011;5008;50.656;7.188;2024-01-15T11:53:13;4.47;;;3.90;;
9938;SDS011;5008;50.656;7.188;2024-01-15T11:55:45;5.33;;;3.73;;
9938;SDS011;5008;50.656;7.188;2024-01-15T11:58:13;4.40;;;4.00;;
9938;SDS011;5008;50.656;7.188;2024-01-15T12:00:42;5.70;;;4.27;;
9938;SDS011;5008;50.656;7.188;2024-01-15T12:03:11;3.87;;;3.47;;
9938;SDS011;5008;50.656;7.188;2024-01-15T12:05:38;8.07;;;4.17;;
9938;SDS011;5008;50.656;7.188;2024-01-15T12:08:07;7.97;;;4.33;;
9938;SDS011;5008;50.656;7.188;2024-01-15T12:10:36;6.90;;;4.73;;
9938;SDS011;5008;50.656;7.188;2024-01-15T12:13:04;6.47;;;3.90;;
9938;SDS011;5008;50.656;7.188;2024-01-15T12:15:32;7.83;;;4.47;;
9938;SDS011;5008;50.656;7.188;2024-01-15T12:18:00;5.53;;;3.93;;
9938;SDS011;5008;50.656;7.188;2024-01-15T12:20:30;5.93;;;5.00;;
9938;SDS011;5008;50.656;7.188;2024-01-15T12:22:58;6.03;;;4.30;;
9938;SDS011;5008;50.656;7.188;2024-01-15T12:25:26;6.23;;;4.17;;
9938;SDS011;5008;50.656;7.188;2024-01-15T12:27:54;5.97;;;4.13;;
9938;SDS011;5008;50.656;7.188;2024-01-15T12:30:22;5.17;;;4.40;;
9938;SDS011;5008;50.656;7.188;2024-01-15T12:32:49;6.87;;;4.53;;
9938;SDS011;5008;50.656;7.188;2024-01-15T12:35:16;5.83;;;3.93;;
9938;SDS011;5008;50.656;7.188;2024-01-15T12:37:45;6.70;;;4.57;;
9938;SDS011;5008;50.656;7.188;2024-01-15T12:40:12;6.87;;;4.77;;
9938;SDS011;5008;50.656;7.188;2024-01-15T12:42:40;6.40;;;4.17;;
9938;SDS011;5008;50.656;7.188;2024-01-15T12:45:08;5.10;;;3.70;;
9938;SDS011;5008;50.656;7.188;2024-01-15T12:47:36;4.30;;;3.57;;
9938;SDS011;5008;50.656;7.188;2024-01-15T12:50:06;6.33;;;4.03;;
9938;SDS011;5008;50.656;7.188;2024-01-15T12:52:33;9.43;;;4.53;;
9938;SDS011;5008;50.656;7.188;2024-01-15T12:55:04;6.40;;;3.47;;
9938;SDS011;5008;50.656;7.188;2024-01-15T12:57:31;8.20;;;3.60;;
9938;SDS011;5008;50.656;7.188;2024-01-15T12:59:58;3.93;;;3.10;;
9938;SDS011;5008;50.656;7.188;2024-01-15T13:02:24;4.43;;;3.00;;
9938;SDS011;5008;50.656;7.188;2024-01-15T13:04:51;6.33;;;3.60;;
9938;SDS011;5008;50.656;7.188;2024-01-15T13:07:19;7.87;;;3.70;;
9938;SDS011;5008;50.656;7.188;2024-01-15T13:09:46;6.93;;;3.50;;
9938;SDS011;5008;50.656;7.188;2024-01-15T13:12:18;4.83;;;3.37;;
9938;SDS011;5008;50.656;7.188;2024-01-15T13:14:45;7.17;;;3.30;;
9938;SDS011;5008;50.656;7.188;2024-01-15T13:17:12;5.97;;;3.00;;
9938;SDS011;5008;50.656;7.188;2024-01-15T13:19:39;5.13;;;3.07;;
9938;SDS011;5008;50.656;7.188;2024-01-15T13:22:06;7.90;;;3.00;;
9938;SDS011;5008;50.656;7.188;2024-01-15T13:24:34;6.47;;;3.13;;
9938;SDS011;5008;50.656;7.188;2024-01-15T13:27:01;4.80;;;2.50;;
9938;SDS011;5008;50.656;7.188;2024-01-15T13:29:30;4.87;;;2.70;;
9938;SDS011;5008;50.656;7.188;2024-01-15T13:31:57;3.87;;;2.87;;
9938;SDS011;5008;50.656;7.188;2024-01-15T13:34:24;3.10;;;2.60;;
9938;SDS011;5008;50.656;7.188;2024-01-15T13:36:51;4.57;;;2.97;;
9938;SDS011;5008;50.656;7.188;2024-01-15T13:39:19;8.57;;;3.17;;
9938;SDS011;5008;50.656;7.188;2024-01-15T13:41:46;4.93;;;2.50;;
9938;SDS011;5008;50.656;7.188;2024-01-15T13:44:13;4.63;;;2.73;;
9938;SDS011;5008;50.656;7.188;2024-01-15T13:46:41;3.07;;;2.77;;
9938;SDS011;5008;50.656;7.188;2024-01-15T13:49:08;3.97;;;2.80;;
9938;SDS011;5008;50.656;7.188;2024-01-15T13:51:35;2.50;;;2.20;;
9938;SDS011;5008;50.656;7.188;2024-01-15T13:54:02;4.27;;;2.47;;
9938;SDS011;5008;50.656;7.188;2024-01-15T13:56:30;4.38;;;2.90;;
9938;SDS011;5008;50.656;7.188;2024-01-15T14:01:59;2.40;;;2.20;;
9938;SDS011;5008;50.656;7.188;2024-01-15T14:04:26;4.60;;;2.53;;
9938;SDS011;5008;50.656;7.188;2024-01-15T14:06:53;3.63;;;2.30;;
9938;SDS011;5008;50.656;7.188;2024-01-15T14:09:20;4.17;;;2.60;;
9938;SDS011;5008;50.656;7.188;2024-01-15T14:11:47;2.77;;;2.53;;
9938;SDS011;5008;50.656;7.188;2024-01-15T14:14:14;3.97;;;2.63;;
9938;SDS011;5008;50.656;7.188;2024-01-15T14:16:42;5.13;;;2.63;;
9938;SDS011;5008;50.656;7.188;2024-01-15T14:19:10;4.57;;;2.50;;
9938;SDS011;5008;50.656;7.188;2024-01-15T14:21:37;2.37;;;2.17;;
9938;SDS011;5008;50.656;7.188;2024-01-15T14:24:03;2.60;;;2.20;;
9938;SDS011;5008;50.656;7.188;2024-01-15T14:26:30;5.80;;;2.50;;
9938;SDS011;5008;50.656;7.188;2024-01-15T14:28:57;4.17;;;2.37;;
9938;SDS011;5008;50.656;7.188;2024-01-15T14:31:24;3.33;;;2.40;;
9938;SDS011;5008;50.656;7.188;2024-01-15T14:33:53;2.63;;;2.40;;
9938;SDS011;5008;50.656;7.188;2024-01-15T14:36:22;5.43;;;2.40;;
9938;SDS011;5008;50.656;7.188;2024-01-15T14:38:48;2.57;;;2.07;;
9938;SDS011;5008;50.656;7.188;2024-01-15T14:41:15;4.87;;;2.83;;
9938;SDS011;5008;50.656;7.188;2024-01-15T14:43:42;6.03;;;2.90;;
9938;SDS011;5008;50.656;7.188;2024-01-15T14:46:10;4.33;;;2.23;;
9938;SDS011;5008;50.656;7.188;2024-01-15T14:48:37;2.00;;;1.70;;
9938;SDS011;5008;50.656;7.188;2024-01-15T14:51:05;3.37;;;1.97;;
9938;SDS011;5008;50.656;7.188;2024-01-15T14:53:33;3.37;;;2.00;;
9938;SDS011;5008;50.656;7.188;2024-01-15T14:56:00;2.30;;;1.80;;
9938;SDS011;5008;50.656;7.188;2024-01-15T14:58:27;1.90;;;1.63;;
9938;SDS011;5008;50.656;7.188;2024-01-15T15:00:54;2.10;;;1.73;;
9938;SDS011;5008;50.656;7.188;2024-01-15T15:03:21;3.13;;;2.10;;
9938;SDS011;5008;50.656;7.188;2024-01-15T15:05:48;2.90;;;1.60;;
9938;SDS011;5008;50.656;7.188;2024-01-15T15:08:15;1.87;;;1.77;;
9938;SDS011;5008;50.656;7.188;2024-01-15T15:10:44;2.63;;;2.00;;
9938;SDS011;5008;50.656;7.188;2024-01-15T15:13:11;2.17;;;1.83;;
9938;SDS011;5008;50.656;7.188;2024-01-15T15:15:38;2.43;;;1.97;;
9938;SDS011;5008;50.656;7.188;2024-01-15T15:18:05;3.93;;;2.30;;
9938;SDS011;5008;50.656;7.188;2024-01-15T15:20:32;2.07;;;1.60;;
9938;SDS011;5008;50.656;7.188;2024-01-15T15:22:58;2.43;;;2.20;;
9938;SDS011;5008;50.656;7.188;2024-01-15T15:25:25;1.97;;;1.73;;
9938;SDS011;5008;50.656;7.188;2024-01-15T15:27:53;2.90;;;2.17;;
9938;SDS011;5008;50.656;7.188;2024-01-15T15:30:32;2.07;;;1.97;;
9938;SDS011;5008;50.656;7.188;2024-01-15T15:32:58;2.30;;;2.10;;
9938;SDS011;5008;50.656;7.188;2024-01-15T15:35:25;3.13;;;2.07;;
9938;SDS011;5008;50.656;7.188;2024-01-15T15:37:52;3.03;;;2.30;;
9938;SDS011;5008;50.656;7.188;2024-01-15T15:40:19;2.50;;;2.30;;
9938;SDS011;5008;50.656;7.188;2024-01-15T15:42:47;2.43;;;2.23;;
9938;SDS011;5008;50.656;7.188;2024-01-15T15:45:16;4.00;;;2.33;;
9938;SDS011;5008;50.656;7.188;2024-01-15T15:47:42;2.27;;;1.97;;
9938;SDS011;5008;50.656;7.188;2024-01-15T15:50:09;2.80;;;2.23;;
9938;SDS011;5008;50.656;7.188;2024-01-15T15:52:36;2.87;;;2.10;;
9938;SDS011;5008;50.656;7.188;2024-01-15T15:55:03;2.20;;;1.97;;
9938;SDS011;5008;50.656;7.188;2024-01-15T15:57:32;2.37;;;2.20;;
9938;SDS011;5008;50.656;7.188;2024-01-15T15:59:59;2.73;;;2.23;;
9938;SDS011;5008;50.656;7.188;2024-01-15T16:02:27;2.20;;;2.00;;
9938;SDS011;5008;50.656;7.188;2024-01-15T16:04:54;2.57;;;2.37;;
9938;SDS011;5008;50.656;7.188;2024-01-15T16:07:22;2.40;;;2.20;;
9938;SDS011;5008;50.656;7.188;2024-01-15T16:09:53;4.63;;;2.27;;
9938;SDS011;5008;50.656;7.188;2024-01-15T16:12:20;2.57;;;2.37;;
9938;SDS011;5008;50.656;7.188;2024-01-15T16:14:47;2.80;;;2.60;;
9938;SDS011;5008;50.656;7.188;2024-01-15T16:17:13;2.80;;;2.53;;
9938;SDS011;5008;50.656;7.188;2024-01-15T16:19:42;3.40;;;2.40;;
9938;SDS011;5008;50.656;7.188;2024-01-15T16:22:09;2.40;;;2.20;;
9938;SDS011;5008;50.656;7.188;2024-01-15T16:24:36;2.80;;;2.60;;
9938;SDS011;5008;50.656;7.188;2024-01-15T16:27:03;2.80;;;2.60;;
9938;SDS011;5008;50.656;7.188;2024-01-15T16:29:30;2.63;;;2.43;;
9938;SDS011;5008;50.656;7.188;2024-01-15T16:31:57;3.53;;;2.73;;
9938;SDS011;5008;50.656;7.188;2024-01-15T16:34:24;3.53;;;2.70;;
9938;SDS011;5008;50.656;7.188;2024-01-15T16:36:52;3.33;;;2.80;;
9938;SDS011;5008;50.656;7.188;2024-01-15T16:39:18;3.03;;;2.67;;
9938;SDS011;5008;50.656;7.188;2024-01-15T16:41:45;3.83;;;2.50;;
9938;SDS011;5008;50.656;7.188;2024-01-15T16:44:12;3.00;;;2.70;;
9938;SDS011;5008;50.656;7.188;2024-01-15T16:46:39;3.73;;;2.30;;
9938;SDS011;5008;50.656;7.188;2024-01-15T16:49:06;3.37;;;2.30;;
9938;SDS011;5008;50.656;7.188;2024-01-15T16:51:35;24.23;;;18.07;;
9938;SDS011;5008;50.656;7.188;2024-01-15T16:54:03;3.80;;;2.80;;
9938;SDS011;5008;50.656;7.188;2024-01-15T16:56:30;3.87;;;2.30;;
9938;SDS011;5008;50.656;7.188;2024-01-15T16:58:57;2.67;;;2.47;;
9938;SDS011;5008;50.656;7.188;2024-01-15T17:01:23;4.57;;;3.17;;
9938;SDS011;5008;50.656;7.188;2024-01-15T17:03:50;3.40;;;2.43;;
9938;SDS011;5008;50.656;7.188;2024-01-15T17:06:18;3.50;;;2.50;;
9938;SDS011;5008;50.656;7.188;2024-01-15T17:08:44;2.60;;;2.40;;
9938;SDS011;5008;50.656;7.188;2024-01-15T17:11:12;3.50;;;2.80;;
9938;SDS011;5008;50.656;7.188;2024-01-15T17:13:39;2.80;;;2.43;;
9938;SDS011;5008;50.656;7.188;2024-01-15T17:16:06;3.80;;;2.73;;
9938;SDS011;5008;50.656;7.188;2024-01-15T17:18:33;4.30;;;2.53;;
9938;SDS011;5008;50.656;7.188;2024-01-15T17:21:00;3.30;;;2.20;;
9938;SDS011;5008;50.656;7.188;2024-01-15T17:23:26;2.90;;;2.10;;
9938;SDS011;5008;50.656;7.188;2024-01-15T17:25:54;4.70;;;2.57;;
9938;SDS011;5008;50.656;7.188;2024-01-15T17:28:22;3.67;;;2.87;;
9938;SDS011;5008;50.656;7.188;2024-01-15T17:30:50;3.80;;;3.50;;
9938;SDS011;5008;50.656;7.188;2024-01-15T17:33:17;5.73;;;2.90;;
9938;SDS011;5008;50.656;7.188;2024-01-15T17:35:49;4.37;;;2.30;;
9938;SDS011;5008;50.656;7.188;2024-01-15T17:38:17;4.03;;;3.33;;
9938;SDS011;5008;50.656;7.188;2024-01-15T17:40:43;3.90;;;2.27;;
9938;SDS011;5008;50.656;7.188;2024-01-15T17:43:10;5.43;;;2.67;;
9938;SDS011;5008;50.656;7.188;2024-01-15T17:45:38;3.43;;;2.13;;
9938;SDS011;5008;50.656;7.188;2024-01-15T17:48:06;5.40;;;2.30;;
9938;SDS011;5008;50.656;7.188;2024-01-15T17:50:34;3.03;;;2.00;;
9938;SDS011;5008;50.656;7.188;2024-01-15T17:53:03;4.83;;;2.40;;
9938;SDS011;5008;50.656;7.188;2024-01-15T17:55:30;3.00;;;1.80;;
9938;SDS011;5008;50.656;7.188;2024-01-15T17:57:57;4.63;;;2.17;;
9938;SDS011;5008;50.656;7.188;2024-01-15T18:00:24;2.83;;;2.00;;
9938;SDS011;5008;50.656;7.188;2024-01-15T18:02:52;2.73;;;2.20;;
9938;SDS011;5008;50.656;7.188;2024-01-15T18:05:20;3.03;;;2.07;;
9938;SDS011;5008;50.656;7.188;2024-01-15T18:07:47;3.73;;;3.33;;
9938;SDS011;5008;50.656;7.188;2024-01-15T18:10:14;2.53;;;2.00;;
9938;SDS011;5008;50.656;7.188;2024-01-15T18:12:41;3.17;;;2.30;;
9938;SDS011;5008;50.656;7.188;2024-01-15T18:15:08;4.30;;;2.40;;
9938;SDS011;5008;50.656;7.188;2024-01-15T18:17:40;4.83;;;2.10;;
9938;SDS011;5008;50.656;7.188;2024-01-15T18:20:09;2.17;;;1.97;;
9938;SDS011;5008;50.656;7.188;2024-01-15T18:22:37;2.83;;;1.97;;
9938;SDS011;5008;50.656;7.188;2024-01-15T18:25:04;3.47;;;1.90;;
9938;SDS011;5008;50.656;7.188;2024-01-15T18:27:31;6.17;;;2.30;;
9938;SDS011;5008;50.656;7.188;2024-01-15T18:29:58;3.10;;;2.67;;
9938;SDS011;5008;50.656;7.188;2024-01-15T18:32:25;3.00;;;2.00;;
9938;SDS011;5008;50.656;7.188;2024-01-15T18:34:52;6.27;;;2.33;;
9938;SDS011;5008;50.656;7.188;2024-01-15T18:37:20;2.53;;;2.10;;
9938;SDS011;5008;50.656;7.188;2024-01-15T18:39:47;4.87;;;2.53;;
9938;SDS011;5008;50.656;7.188;2024-01-15T18:42:13;5.27;;;2.60;;
9938;SDS011;5008;50.656;7.188;2024-01-15T18:44:40;3.83;;;2.77;;
9938;SDS011;5008;50.656;7.188;2024-01-15T18:47:07;3.07;;;2.13;;
9938;SDS011;5008;50.656;7.188;2024-01-15T18:49:34;5.33;;;2.30;;
9938;SDS011;5008;50.656;7.188;2024-01-15T18:52:01;5.17;;;2.10;;
9938;SDS011;5008;50.656;7.188;2024-01-15T18:54:29;2.70;;;2.07;;
9938;SDS011;5008;50.656;7.188;2024-01-15T18:56:56;4.13;;;2.20;;
9938;SDS011;5008;50.656;7.188;2024-01-15T18:59:23;4.77;;;2.60;;
9938;SDS011;5008;50.656;7.188;2024-01-15T19:01:50;5.10;;;2.50;;
9938;SDS011;5008;50.656;7.188;2024-01-15T19:04:16;4.97;;;2.93;;
9938;SDS011;5008;50.656;7.188;2024-01-15T19:06:43;5.00;;;2.90;;
9938;SDS011;5008;50.656;7.188;2024-01-15T19:09:10;4.57;;;2.10;;
9938;SDS011;5008;50.656;7.188;2024-01-15T19:11:37;4.50;;;2.13;;
9938;SDS011;5008;50.656;7.188;2024-01-15T19:14:05;4.53;;;2.20;;
9938;SDS011;5008;50.656;7.188;2024-01-15T19:16:34;4.53;;;2.53;;
9938;SDS011;5008;50.656;7.188;2024-01-15T19:19:01;4.40;;;2.37;;
9938;SDS011;5008;50.656;7.188;2024-01-15T19:21:28;5.23;;;2.60;;
9938;SDS011;5008;50.656;7.188;2024-01-15T19:23:55;3.93;;;1.83;;
9938;SDS011;5008;50.656;7.188;2024-01-15T19:26:22;3.97;;;2.13;;
9938;SDS011;5008;50.656;7.188;2024-01-15T19:28:50;4.77;;;2.50;;
9938;SDS011;5008;50.656;7.188;2024-01-15T19:31:17;3.80;;;1.90;;
9938;SDS011;5008;50.656;7.188;2024-01-15T19:33:44;4.57;;;2.80;;
9938;SDS011;5008;50.656;7.188;2024-01-15T19:36:18;3.73;;;1.80;;
9938;SDS011;5008;50.656;7.188;2024-01-15T19:38:46;5.07;;;1.93;;
9938;SDS011;5008;50.656;7.188;2024-01-15T19:41:13;5.07;;;2.90;;
9938;SDS011;5008;50.656;7.188;2024-01-15T19:43:39;2.53;;;1.97;;
9938;SDS011;5008;50.656;7.188;2024-01-15T19:46:08;6.80;;;2.87;;
9938;SDS011;5008;50.656;7.188;2024-01-15T19:48:35;7.90;;;2.30;;
9938;SDS011;5008;50.656;7.188;2024-01-15T19:51:02;3.40;;;2.50;;
9938;SDS011;5008;50.656;7.188;2024-01-15T19:53:29;2.80;;;2.10;;
9938;SDS011;5008;50.656;7.188;2024-01-15T19:55:56;4.63;;;2.70;;
9938;SDS011;5008;50.656;7.188;2024-01-15T19:58:23;3.23;;;2.10;;
9938;SDS011;5008;50.656;7.188;2024-01-15T20:00:49;4.43;;;2.90;;
9938;SDS011;5008;50.656;7.188;2024-01-15T20:03:18;7.57;;;2.77;;
9938;SDS011;5008;50.656;7.188;2024-01-15T20:05:45;9.87;;;6.87;;
9938;SDS011;5008;50.656;7.188;2024-01-15T20:08:12;5.80;;;2.77;;
9938;SDS011;5008;50.656;7.188;2024-01-15T20:10:39;9.00;;;5.40;;
9938;SDS011;5008;50.656;7.188;2024-01-15T20:13:05;5.23;;;2.80;;
9938;SDS011;5008;50.656;7.188;2024-01-15T20:15:32;4.03;;;2.50;;
9938;SDS011;5008;50.656;7.188;2024-01-15T20:18:01;3.57;;;2.87;;
9938;SDS011;5008;50.656;7.188;2024-01-15T20:20:29;8.93;;;4.97;;
9938;SDS011;5008;50.656;7.188;2024-01-15T20:22:56;7.97;;;3.63;;
9938;SDS011;5008;50.656;7.188;2024-01-15T20:25:23;5.80;;;3.33;;
9938;SDS011;5008;50.656;7.188;2024-01-15T20:27:50;6.60;;;3.93;;
9938;SDS011;5008;50.656;7.188;2024-01-15T20:30:17;3.17;;;2.60;;